createdAt,value
2019-02-16T00:01:04.556Z,9.67
2019-02-16T00:06:07.236Z,9.67
2019-02-16T00:11:09.912Z,9.61
2019-02-16T00:16:12.599Z,9.63
2019-02-16T00:21:16.270Z,9.60
2019-02-16T00:26:19.093Z,9.55
2019-02-16T00:31:21.748Z,9.57
2019-02-16T00:36:24.428Z,9.50
2019-02-16T00:41:27.113Z,9.50
2019-02-16T00:46:29.787Z,9.50
2019-02-16T00:51:32.471Z,9.54
2019-02-16T00:56:35.193Z,9.51
2019-02-16T01:01:38.141Z,9.47
2019-02-16T01:06:41.370Z,9.44
2019-02-16T01:11:44.415Z,9.34
2019-02-16T01:16:47.599Z,9.18
2019-02-16T01:21:50.537Z,9.05
2019-02-16T01:26:53.618Z,9.00
2019-02-16T01:31:56.360Z,9.07
2019-02-16T01:36:59.023Z,9.02
2019-02-16T01:42:01.700Z,8.79
2019-02-16T01:47:04.381Z,8.65
2019-02-16T01:52:07.076Z,8.72
2019-02-16T01:57:09.780Z,8.79
2019-02-16T02:02:12.470Z,8.78
2019-02-16T02:07:15.158Z,8.73
2019-02-16T02:12:17.900Z,8.65
2019-02-16T02:17:20.634Z,8.35
2019-02-16T02:22:23.380Z,8.33
2019-02-16T02:27:26.062Z,8.33
2019-02-16T02:32:28.724Z,8.45
2019-02-16T02:37:31.397Z,8.63
2019-02-16T02:42:34.068Z,8.69
2019-02-16T02:47:36.757Z,8.73
2019-02-16T02:52:39.476Z,8.63
2019-02-16T02:57:42.177Z,8.44
2019-02-16T03:02:44.845Z,8.27
2019-02-16T03:07:47.527Z,8.01
2019-02-16T03:12:50.275Z,7.88
2019-02-16T03:17:52.975Z,7.78
2019-02-16T03:23:19.548Z,7.69
2019-02-16T03:28:33.758Z,7.53
2019-02-16T03:33:47.574Z,7.47
2019-02-16T03:39:04.368Z,7.53
2019-02-16T03:44:07.053Z,7.40
2019-02-16T03:49:09.854Z,7.17
2019-02-16T03:54:12.531Z,7.13
2019-02-16T03:59:15.252Z,7.08
2019-02-16T04:04:17.944Z,7.10
2019-02-16T04:09:20.635Z,7.21
2019-02-16T04:14:23.331Z,7.42
2019-02-16T04:19:26.066Z,7.55
2019-02-16T04:24:30.718Z,7.60
2019-02-16T04:29:34.200Z,7.61
2019-02-16T04:34:37.024Z,7.64
2019-02-16T04:39:39.714Z,7.69
2019-02-16T04:44:42.425Z,7.68
2019-02-16T04:49:45.252Z,7.65
2019-02-16T04:54:49.774Z,7.56
2019-02-16T04:59:54.233Z,7.26
2019-02-16T05:04:59.992Z,7.14
2019-02-16T05:10:23.496Z,7.10
2019-02-16T05:15:32.166Z,7.17
2019-02-16T05:20:36.696Z,7.26
2019-02-16T05:25:41.806Z,7.36
2019-02-16T05:30:47.047Z,7.45
2019-02-16T05:35:52.365Z,7.58
2019-02-16T05:40:57.384Z,7.64
2019-02-16T05:51:19.086Z,7.85
2019-02-16T05:56:23.796Z,7.86
2019-02-16T06:01:54.245Z,7.87
2019-02-16T06:06:57.694Z,7.81
2019-02-16T06:12:01.927Z,7.66
2019-02-16T06:17:06.085Z,7.48
2019-02-16T06:22:10.435Z,7.30
2019-02-16T06:27:14.824Z,7.22
2019-02-16T06:32:19.630Z,7.19
2019-02-16T06:37:24.691Z,7.24
2019-02-16T06:42:28.041Z,7.27
2019-02-16T06:47:31.344Z,7.38
2019-02-16T06:52:34.897Z,7.35
2019-02-16T06:57:40.539Z,7.28
2019-02-16T07:02:47.173Z,7.24
2019-02-16T07:07:51.431Z,7.24
2019-02-16T07:13:00.370Z,7.38
2019-02-16T07:18:16.437Z,7.48
2019-02-16T07:23:22.789Z,7.51
2019-02-16T07:28:26.374Z,7.48
2019-02-16T07:33:30.086Z,7.55
2019-02-16T07:38:33.615Z,7.60
2019-02-16T07:43:55.117Z,7.66
2019-02-16T07:49:12.696Z,7.72
2019-02-16T07:54:38.699Z,7.82
2019-02-16T08:00:05.216Z,7.87
2019-02-16T08:05:27.848Z,8.05
2019-02-16T08:10:54.237Z,8.23
2019-02-16T08:16:18.395Z,8.57
2019-02-16T08:21:49.097Z,8.78
2019-02-16T08:27:05.859Z,9.06
2019-02-16T08:32:31.976Z,9.26
2019-02-16T08:37:48.447Z,9.48
2019-02-16T08:43:10.137Z,9.77
2019-02-16T08:48:33.392Z,9.94
2019-02-16T08:53:49.908Z,10.07
2019-02-16T08:59:00.345Z,10.41
2019-02-16T09:04:39.012Z,10.59
2019-02-16T09:10:20.076Z,10.78
2019-02-16T09:15:42.186Z,10.91
2019-02-16T09:21:04.648Z,11.25
2019-02-16T09:26:26.762Z,11.42
2019-02-16T09:31:58.581Z,11.59
2019-02-16T09:37:24.920Z,11.75
2019-02-16T09:42:46.593Z,11.89
2019-02-16T09:48:19.284Z,12.09
2019-02-16T09:53:42.718Z,12.20
2019-02-16T09:59:06.063Z,12.46
2019-02-16T10:04:34.316Z,12.69
2019-02-16T10:09:51.498Z,12.92
2019-02-16T10:15:21.158Z,13.05
2019-02-16T10:20:44.004Z,13.41
2019-02-16T10:26:07.282Z,13.65
2019-02-16T10:31:36.817Z,13.77
2019-02-16T10:36:58.612Z,14.02
2019-02-16T10:42:12.835Z,14.12
2019-02-16T10:47:48.343Z,14.32
2019-02-16T10:53:01.675Z,14.52
2019-02-16T10:58:24.849Z,14.51
2019-02-16T11:03:41.020Z,14.58
2019-02-16T11:08:51.483Z,14.69
2019-02-16T11:14:21.017Z,14.83
2019-02-16T11:19:43.263Z,14.91
2019-02-16T11:25:06.626Z,14.99
2019-02-16T11:30:28.576Z,15.03
2019-02-16T11:35:58.385Z,15.27
2019-02-16T11:46:23.124Z,15.46
2019-02-16T11:51:35.382Z,15.67
2019-02-16T11:57:01.226Z,15.87
2019-02-16T12:02:17.922Z,16.01
2019-02-16T12:07:43.541Z,16.18
2019-02-16T12:13:19.036Z,16.31
2019-02-16T12:18:28.416Z,16.35
2019-02-16T12:23:43.580Z,16.35
2019-02-16T12:29:03.888Z,16.37
2019-02-16T12:34:29.067Z,16.47
2019-02-16T12:39:46.552Z,16.53
2019-02-16T12:45:07.811Z,16.53
2019-02-16T12:50:35.861Z,16.73
2019-02-16T12:55:50.207Z,16.73
2019-02-16T13:01:15.436Z,16.80
2019-02-16T13:06:36.485Z,16.88
2019-02-16T13:12:07.885Z,16.89
2019-02-16T13:17:31.652Z,16.97
2019-02-16T13:22:57.044Z,17.01
2019-02-16T13:28:21.953Z,17.04
2019-02-16T13:33:56.510Z,16.91
2019-02-16T13:39:25.827Z,16.99
2019-02-16T13:44:36.223Z,17.03
2019-02-16T13:49:45.573Z,17.00
2019-02-16T13:54:53.953Z,16.93
2019-02-16T14:00:17.602Z,16.99
2019-02-16T14:05:34.415Z,16.99
2019-02-16T14:10:51.632Z,16.95
2019-02-16T14:16:17.638Z,16.80
2019-02-16T14:21:23.201Z,16.82
2019-02-16T14:26:27.566Z,16.72
2019-02-16T14:31:31.859Z,16.85
2019-02-16T14:36:38.635Z,16.74
2019-02-16T14:41:42.436Z,16.77
2019-02-16T14:46:46.062Z,16.80
2019-02-16T14:51:50.356Z,16.70
2019-02-16T14:56:54.491Z,16.74
2019-02-16T15:01:59.193Z,16.68
2019-02-16T15:07:03.191Z,16.72
2019-02-16T15:12:07.356Z,16.73
2019-02-16T15:17:10.991Z,16.53
2019-02-16T15:22:15.516Z,16.47
2019-02-16T15:27:31.716Z,16.29
2019-02-16T15:32:37.240Z,16.19
2019-02-16T15:37:49.486Z,16.00
2019-02-16T15:42:57.262Z,15.86
2019-02-16T15:48:03.273Z,15.63
2019-02-16T15:53:06.264Z,15.43
2019-02-16T15:58:10.406Z,15.23
2019-02-16T16:03:15.093Z,15.04
2019-02-16T16:08:42.173Z,14.83
2019-02-16T16:14:12.717Z,14.76
2019-02-16T16:19:31.468Z,14.58
2019-02-16T16:24:43.103Z,14.41
2019-02-16T16:30:11.294Z,14.33
2019-02-16T16:35:31.305Z,14.21
2019-02-16T16:41:00.989Z,14.05
2019-02-16T16:52:10.589Z,13.52
2019-02-16T16:57:21.729Z,13.20
2019-02-16T17:02:45.878Z,13.00
2019-02-16T17:08:09.763Z,12.91
2019-02-16T17:13:28.877Z,12.76
2019-02-16T17:18:38.979Z,12.57
2019-02-16T17:24:02.399Z,12.50
2019-02-16T17:29:34.453Z,12.41
2019-02-16T17:35:06.445Z,12.40
2019-02-16T17:40:28.606Z,12.30
2019-02-16T17:45:59.234Z,12.21
2019-02-16T17:51:23.805Z,11.98
2019-02-16T17:56:49.986Z,11.81
2019-02-16T18:02:26.773Z,11.81
2019-02-16T18:07:44.067Z,11.75
2019-02-16T18:13:00.855Z,11.60
2019-02-16T18:18:23.978Z,11.44
2019-02-16T18:23:56.515Z,11.27
2019-02-16T18:29:19.897Z,11.15
2019-02-16T18:34:41.937Z,10.99
2019-02-16T18:39:58.612Z,10.90
2019-02-16T18:45:12.508Z,10.78
2019-02-16T18:50:28.039Z,10.59
2019-02-16T18:56:02.485Z,10.50
2019-02-16T19:01:30.869Z,10.51
2019-02-16T19:06:46.261Z,10.35
2019-02-16T19:12:20.766Z,10.23
2019-02-16T19:17:46.535Z,10.12
2019-02-16T19:22:59.997Z,9.94
2019-02-16T19:28:23.064Z,9.86
2019-02-16T19:33:43.942Z,9.81
2019-02-16T19:38:57.383Z,9.72
2019-02-16T19:44:22.460Z,9.66
2019-02-16T19:49:44.220Z,9.65
2019-02-16T19:55:05.796Z,9.58
2019-02-16T20:00:36.107Z,9.45
2019-02-16T20:06:11.644Z,9.37
2019-02-16T20:11:33.995Z,9.27
2019-02-16T20:16:49.455Z,9.11
2019-02-16T20:22:18.643Z,8.98
2019-02-16T20:27:37.237Z,8.87
2019-02-16T20:33:03.475Z,8.73
2019-02-16T20:38:37.156Z,8.66
2019-02-16T20:44:03.259Z,8.55
2019-02-16T20:49:16.581Z,8.45
2019-02-16T20:54:38.680Z,8.46
2019-02-16T20:59:50.695Z,8.45
2019-02-16T21:05:17.308Z,8.35
2019-02-16T21:10:34.198Z,8.29
2019-02-16T21:15:49.239Z,8.25
2019-02-16T21:21:16.700Z,8.21
2019-02-16T21:26:46.136Z,8.15
2019-02-16T21:32:00.732Z,8.06
2019-02-16T21:37:41.995Z,8.00
2019-02-16T21:43:07.216Z,7.99
2019-02-16T21:48:38.667Z,7.92
2019-02-16T21:54:12.620Z,7.83
2019-02-16T21:59:37.146Z,7.71
2019-02-16T22:05:11.557Z,7.64
2019-02-16T22:10:22.696Z,7.59
2019-02-16T22:15:25.458Z,7.51
2019-02-16T22:20:28.369Z,7.35
2019-02-16T22:25:31.141Z,7.30
2019-02-16T22:30:33.868Z,7.34
2019-02-16T22:35:36.588Z,7.31
2019-02-16T22:40:39.289Z,7.36
2019-02-16T22:45:41.989Z,7.52
2019-02-16T22:50:44.689Z,7.63
2019-02-16T22:55:47.379Z,7.68
2019-02-16T23:00:52.301Z,7.61
2019-02-16T23:05:54.991Z,7.49
2019-02-16T23:10:57.688Z,7.48
2019-02-16T23:16:00.389Z,7.44
2019-02-16T23:21:03.108Z,7.38
2019-02-16T23:26:05.803Z,7.34
2019-02-16T23:31:08.496Z,7.27
2019-02-16T23:36:11.229Z,7.31
2019-02-16T23:41:13.912Z,7.28
2019-02-16T23:46:16.636Z,7.26
2019-02-16T23:51:19.344Z,7.16
2019-02-16T23:56:22.048Z,7.05
